createdAt,value
2018-02-13T00:00:37.169Z,22.57
2018-02-13T00:03:05.586Z,22.63
2018-02-13T00:05:34.041Z,20.87
2018-02-13T00:10:53.693Z,22.00
2018-02-13T00:13:22.117Z,21.17
2018-02-13T00:15:50.541Z,21.60
2018-02-13T00:18:18.986Z,20.80
2018-02-13T00:20:47.386Z,21.73
2018-02-13T00:23:15.801Z,23.50
2018-02-13T00:25:44.273Z,21.77
2018-02-13T00:28:12.695Z,22.03
2018-02-13T00:30:41.107Z,21.87
2018-02-13T00:33:09.554Z,20.60
2018-02-13T00:35:37.957Z,22.70
2018-02-13T00:38:06.387Z,22.83
2018-02-13T00:40:34.892Z,22.93
2018-02-13T00:43:03.316Z,24.90
2018-02-13T00:45:31.726Z,23.43
2018-02-13T00:48:00.185Z,21.93
2018-02-13T00:50:28.599Z,23.27
2018-02-13T00:52:57.002Z,22.67
2018-02-13T00:55:25.451Z,22.60
2018-02-13T00:57:53.856Z,22.67
2018-02-13T01:00:22.302Z,22.47
2018-02-13T01:02:50.762Z,23.27
2018-02-13T01:05:19.167Z,25.40
2018-02-13T01:07:47.601Z,25.57
2018-02-13T01:10:16.046Z,24.30
2018-02-13T01:12:44.457Z,25.17
2018-02-13T01:15:12.890Z,23.87
2018-02-13T01:17:41.358Z,24.40
2018-02-13T01:20:09.761Z,23.70
2018-02-13T01:22:38.188Z,24.67
2018-02-13T01:25:06.652Z,24.27
2018-02-13T01:27:35.076Z,24.03
2018-02-13T01:30:03.514Z,25.63
2018-02-13T01:32:31.958Z,24.07
2018-02-13T01:35:00.394Z,23.23
2018-02-13T01:37:28.799Z,25.03
2018-02-13T01:39:57.246Z,22.80
2018-02-13T01:42:25.645Z,25.33
2018-02-13T01:44:54.074Z,23.27
2018-02-13T01:47:22.529Z,24.17
2018-02-13T01:49:50.946Z,23.93
2018-02-13T01:52:19.346Z,25.50
2018-02-13T01:54:47.799Z,23.20
2018-02-13T01:57:16.210Z,23.90
2018-02-13T01:59:44.631Z,24.33
2018-02-13T02:02:13.098Z,24.30
2018-02-13T02:04:41.489Z,23.80
2018-02-13T02:07:09.885Z,23.60
2018-02-13T02:09:38.351Z,23.70
2018-02-13T02:12:06.746Z,23.60
2018-02-13T02:14:35.138Z,23.97
2018-02-13T02:17:03.574Z,22.87
2018-02-13T02:19:31.979Z,24.43
2018-02-13T02:22:00.399Z,23.53
2018-02-13T02:24:28.841Z,23.70
2018-02-13T02:26:57.254Z,22.80
2018-02-13T02:29:25.668Z,22.70
2018-02-13T02:31:54.124Z,23.70
2018-02-13T02:34:22.550Z,23.50
2018-02-13T02:36:50.954Z,23.30
2018-02-13T02:39:19.401Z,23.30
2018-02-13T02:41:47.822Z,22.57
2018-02-13T02:44:16.241Z,23.70
2018-02-13T02:46:44.715Z,24.63
2018-02-13T02:49:13.131Z,24.60
2018-02-13T02:51:41.525Z,22.23
2018-02-13T02:54:09.979Z,24.57
2018-02-13T02:56:38.380Z,22.13
2018-02-13T02:59:06.793Z,23.30
2018-02-13T03:01:35.256Z,24.27
2018-02-13T03:04:03.650Z,24.63
2018-02-13T03:06:32.075Z,23.97
2018-02-13T03:09:00.684Z,23.50
2018-02-13T03:11:29.099Z,24.67
2018-02-13T03:13:57.505Z,23.43
2018-02-13T03:16:25.959Z,23.33
2018-02-13T03:18:54.372Z,22.97
2018-02-13T03:21:22.773Z,22.43
2018-02-13T03:23:51.206Z,22.83
2018-02-13T03:26:19.593Z,22.67
2018-02-13T03:28:48.003Z,24.10
2018-02-13T03:31:16.448Z,22.67
2018-02-13T03:33:44.841Z,23.33
2018-02-13T03:36:13.256Z,22.43
2018-02-13T03:38:41.716Z,21.07
2018-02-13T03:41:10.124Z,24.43
2018-02-13T03:43:38.529Z,22.17
2018-02-13T03:46:06.969Z,21.43
2018-02-13T03:48:35.366Z,23.07
2018-02-13T03:51:03.772Z,22.50
2018-02-13T03:53:32.220Z,21.60
2018-02-13T03:56:00.627Z,22.93
2018-02-13T03:58:29.041Z,22.50
2018-02-13T04:00:57.478Z,22.40
2018-02-13T04:03:25.892Z,21.17
2018-02-13T04:05:54.284Z,22.50
2018-02-13T04:08:22.717Z,21.70
2018-02-13T04:10:51.110Z,22.83
2018-02-13T04:13:19.563Z,21.87
2018-02-13T04:15:47.996Z,21.37
2018-02-13T04:18:16.391Z,22.67
2018-02-13T04:20:44.796Z,22.13
2018-02-13T04:23:13.253Z,22.40
2018-02-13T04:25:41.644Z,21.97
2018-02-13T04:28:10.052Z,21.40
2018-02-13T04:30:38.525Z,22.07
2018-02-13T04:33:06.927Z,20.93
2018-02-13T04:35:35.320Z,20.40
2018-02-13T04:38:03.754Z,21.23
2018-02-13T04:40:32.158Z,20.30
2018-02-13T04:43:00.567Z,20.77
2018-02-13T04:45:29.018Z,19.53
2018-02-13T04:47:57.425Z,20.33
2018-02-13T04:50:25.822Z,21.47
2018-02-13T04:52:54.259Z,21.30
2018-02-13T04:55:22.679Z,20.07
2018-02-13T04:57:51.073Z,20.30
2018-02-13T05:00:19.517Z,20.23
2018-02-13T05:02:47.927Z,19.87
2018-02-13T05:05:16.320Z,20.27
2018-02-13T05:07:44.767Z,19.50
2018-02-13T05:10:13.157Z,20.10
2018-02-13T05:12:41.577Z,20.57
2018-02-13T05:15:10.059Z,19.60
2018-02-13T05:17:38.471Z,20.23
2018-02-13T05:20:06.865Z,19.40
2018-02-13T05:22:35.333Z,19.67
2018-02-13T05:25:03.744Z,20.17
2018-02-13T05:27:32.152Z,20.20
2018-02-13T05:30:00.629Z,20.93
2018-02-13T05:32:29.017Z,19.73
2018-02-13T05:34:57.416Z,20.00
2018-02-13T05:37:25.879Z,20.80
2018-02-13T05:39:54.289Z,19.63
2018-02-13T05:42:22.692Z,20.53
2018-02-13T05:44:51.313Z,19.53
2018-02-13T05:47:19.725Z,20.07
2018-02-13T05:49:48.136Z,19.83
2018-02-13T05:52:16.573Z,20.50
2018-02-13T05:54:44.984Z,18.57
2018-02-13T05:57:13.397Z,20.47
2018-02-13T05:59:41.843Z,20.63
2018-02-13T06:02:10.255Z,19.50
2018-02-13T06:04:38.661Z,19.87
2018-02-13T06:07:07.097Z,20.43
2018-02-13T06:09:35.508Z,20.50
2018-02-13T06:12:03.893Z,20.50
2018-02-13T06:14:32.340Z,19.70
2018-02-13T06:17:00.760Z,20.30
2018-02-13T06:19:29.162Z,21.00
2018-02-13T06:21:57.629Z,19.93
2018-02-13T06:24:26.050Z,20.37
2018-02-13T06:26:54.445Z,19.23
2018-02-13T06:29:22.904Z,18.03
2018-02-13T06:31:51.310Z,19.67
2018-02-13T06:34:19.723Z,20.93
2018-02-13T06:36:48.183Z,20.70
2018-02-13T06:39:16.572Z,18.23
2018-02-13T06:41:44.958Z,20.10
2018-02-13T06:44:13.413Z,18.53
2018-02-13T06:46:41.832Z,19.60
2018-02-13T06:49:10.247Z,18.90
2018-02-13T06:51:38.709Z,19.30
2018-02-13T06:54:07.136Z,18.97
2018-02-13T06:56:35.536Z,19.17
2018-02-13T06:59:03.987Z,18.37
2018-02-13T07:01:32.373Z,19.10
2018-02-13T07:04:00.773Z,19.50
2018-02-13T07:06:29.230Z,17.63
2018-02-13T07:08:57.645Z,19.13
2018-02-13T07:11:26.041Z,16.57
2018-02-13T07:13:54.507Z,18.93
2018-02-13T07:16:22.915Z,17.20
2018-02-13T07:18:51.336Z,18.07
2018-02-13T07:21:19.785Z,16.40
2018-02-13T07:23:48.198Z,17.60
2018-02-13T07:26:16.620Z,16.60
2018-02-13T07:28:45.064Z,17.60
2018-02-13T07:31:13.461Z,16.23
2018-02-13T07:33:41.868Z,16.27
2018-02-13T07:36:10.320Z,17.17
2018-02-13T07:38:38.709Z,16.43
2018-02-13T07:41:07.115Z,15.63
2018-02-13T07:43:35.565Z,16.20
2018-02-13T07:46:03.966Z,15.77
2018-02-13T07:48:32.376Z,16.67
2018-02-13T07:51:00.824Z,15.83
2018-02-13T07:53:29.231Z,15.60
2018-02-13T07:55:57.629Z,15.27
2018-02-13T07:58:26.106Z,14.90
2018-02-13T08:00:54.516Z,14.83
2018-02-13T08:03:22.936Z,15.57
2018-02-13T08:05:51.381Z,14.83
2018-02-13T08:08:19.778Z,14.13
2018-02-13T08:10:48.181Z,14.53
2018-02-13T08:13:16.640Z,15.23
2018-02-13T08:15:45.037Z,13.70
2018-02-13T08:18:13.428Z,14.73
2018-02-13T08:20:41.892Z,14.40
2018-02-13T08:23:10.309Z,13.03
2018-02-13T08:25:38.702Z,14.50
2018-02-13T08:28:07.245Z,13.40
2018-02-13T08:30:35.662Z,13.57
2018-02-13T08:33:04.084Z,14.30
2018-02-13T08:35:32.560Z,14.27
2018-02-13T08:38:00.976Z,13.57
2018-02-13T08:40:29.375Z,13.70
2018-02-13T08:42:57.825Z,12.73
2018-02-13T08:45:26.240Z,12.80
2018-02-13T08:47:54.652Z,12.50
2018-02-13T08:50:23.098Z,13.30
2018-02-13T08:52:51.482Z,13.07
2018-02-13T08:55:19.870Z,13.17
2018-02-13T08:57:48.465Z,13.10
2018-02-13T09:00:16.888Z,13.00
2018-02-13T09:02:45.300Z,13.43
2018-02-13T09:05:13.764Z,12.37
2018-02-13T09:07:42.157Z,12.37
2018-02-13T09:10:10.572Z,12.70
2018-02-13T09:12:39.025Z,12.53
2018-02-13T09:15:07.417Z,11.67
2018-02-13T09:17:35.824Z,12.00
2018-02-13T09:20:04.297Z,11.33
2018-02-13T09:22:32.711Z,11.17
2018-02-13T09:25:01.102Z,11.20
2018-02-13T09:27:29.569Z,10.07
2018-02-13T09:29:57.974Z,11.07
2018-02-13T09:32:26.369Z,11.40
2018-02-13T09:34:54.805Z,11.10
2018-02-13T09:37:23.207Z,10.07
2018-02-13T09:39:51.608Z,10.70
2018-02-13T09:42:20.044Z,9.83
2018-02-13T09:44:48.429Z,9.30
2018-02-13T09:47:16.843Z,9.23
2018-02-13T09:49:45.257Z,9.77
2018-02-13T09:52:13.656Z,9.53
2018-02-13T09:54:42.045Z,9.40
2018-02-13T09:57:10.485Z,9.80
2018-02-13T09:59:39.776Z,9.33
2018-02-13T10:02:08.166Z,9.60
2018-02-13T10:04:36.606Z,10.30
2018-02-13T10:07:05.009Z,8.80
2018-02-13T10:09:33.390Z,9.67
2018-02-13T10:12:01.818Z,9.53
2018-02-13T10:14:30.232Z,9.63
2018-02-13T10:16:58.665Z,9.40
2018-02-13T10:19:27.325Z,9.37
2018-02-13T10:21:55.757Z,9.90
2018-02-13T10:24:24.188Z,9.67
2018-02-13T10:26:52.808Z,9.00
2018-02-13T10:29:21.212Z,9.17
2018-02-13T10:31:50.039Z,10.07
2018-02-13T10:34:18.504Z,8.00
2018-02-13T10:36:46.893Z,9.27
2018-02-13T10:39:15.311Z,8.83
2018-02-13T10:41:43.758Z,9.23
2018-02-13T10:44:12.207Z,8.93
2018-02-13T10:46:40.573Z,8.37
2018-02-13T10:49:09.010Z,9.17
2018-02-13T10:51:37.397Z,7.37
2018-02-13T10:54:05.800Z,8.87
2018-02-13T10:56:34.263Z,8.80
2018-02-13T10:59:02.672Z,7.70
2018-02-13T11:01:36.738Z,8.63
2018-02-13T11:04:05.123Z,8.70
2018-02-13T11:06:33.497Z,8.27
2018-02-13T11:09:01.940Z,7.20
2018-02-13T11:11:30.334Z,7.20
2018-02-13T11:13:58.729Z,7.90
2018-02-13T11:16:27.153Z,8.53
2018-02-13T11:18:55.551Z,8.33
2018-02-13T11:21:23.936Z,8.70
2018-02-13T11:23:52.462Z,7.40
2018-02-13T11:26:20.860Z,6.63
2018-02-13T11:28:49.257Z,6.67
2018-02-13T11:31:17.700Z,8.03
2018-02-13T11:33:46.111Z,7.70
2018-02-13T11:36:14.502Z,7.47
2018-02-13T11:38:42.952Z,7.50
2018-02-13T11:41:11.338Z,7.20
2018-02-13T11:43:39.740Z,7.37
2018-02-13T11:46:08.185Z,7.40
2018-02-13T11:48:36.596Z,7.53
2018-02-13T11:51:05.000Z,6.47
2018-02-13T11:53:33.444Z,7.00
2018-02-13T11:56:01.846Z,6.80
2018-02-13T11:58:30.245Z,6.47
2018-02-13T12:00:58.705Z,6.60
2018-02-13T12:03:27.083Z,6.90
2018-02-13T12:05:55.494Z,7.00
2018-02-13T12:08:23.953Z,7.67
2018-02-13T12:10:52.339Z,6.20
2018-02-13T12:13:20.734Z,6.07
2018-02-13T12:15:49.200Z,6.43
2018-02-13T12:18:17.587Z,6.53
2018-02-13T12:20:45.980Z,6.50
2018-02-13T12:23:14.420Z,6.10
2018-02-13T12:25:42.865Z,5.93
2018-02-13T12:28:11.305Z,6.20
2018-02-13T12:30:39.796Z,6.83
2018-02-13T12:33:08.259Z,5.67
2018-02-13T12:35:36.659Z,5.97
2018-02-13T12:38:05.114Z,6.00
2018-02-13T12:40:33.511Z,5.90
2018-02-13T12:43:01.923Z,6.03
2018-02-13T12:45:30.540Z,5.63
2018-02-13T12:47:58.965Z,5.43
2018-02-13T12:50:27.362Z,5.40
2018-02-13T12:52:55.839Z,5.87
2018-02-13T12:55:24.248Z,5.23
2018-02-13T12:57:52.668Z,5.80
2018-02-13T13:00:21.110Z,5.30
2018-02-13T13:02:49.509Z,5.17
2018-02-13T13:05:17.950Z,5.63
2018-02-13T13:07:46.421Z,5.10
2018-02-13T13:10:14.839Z,6.47
2018-02-13T13:12:43.256Z,6.40
2018-02-13T13:15:11.703Z,4.50
2018-02-13T13:17:40.101Z,5.83
2018-02-13T13:20:08.490Z,5.63
2018-02-13T13:22:36.937Z,5.50
2018-02-13T13:25:05.318Z,5.50
2018-02-13T13:27:33.697Z,5.50
2018-02-13T13:30:02.145Z,5.53
2018-02-13T13:32:30.556Z,4.70
2018-02-13T13:34:58.965Z,5.33
2018-02-13T13:37:27.393Z,4.87
2018-02-13T13:39:55.808Z,4.83
2018-02-13T13:42:24.209Z,5.33
2018-02-13T13:44:52.674Z,4.70
2018-02-13T13:47:21.072Z,4.30
2018-02-13T13:49:49.477Z,4.87
2018-02-13T13:52:17.909Z,4.93
2018-02-13T13:54:46.327Z,4.97
2018-02-13T13:57:14.717Z,5.07
2018-02-13T13:59:43.164Z,5.20
2018-02-13T14:02:11.574Z,4.63
2018-02-13T14:04:39.988Z,5.20
2018-02-13T14:07:08.450Z,4.37
2018-02-13T14:09:36.856Z,4.63
2018-02-13T14:12:05.277Z,4.07
2018-02-13T14:14:33.865Z,4.43
2018-02-13T14:17:03.176Z,4.77
2018-02-13T14:19:31.577Z,4.60
2018-02-13T14:22:00.018Z,4.20
2018-02-13T14:24:28.411Z,4.40
2018-02-13T14:26:56.829Z,4.53
2018-02-13T14:29:25.293Z,4.23
2018-02-13T14:31:53.700Z,4.70
2018-02-13T14:34:22.113Z,4.37
2018-02-13T14:36:50.521Z,4.40
2018-02-13T14:39:18.914Z,4.27
2018-02-13T14:41:47.294Z,3.97
2018-02-13T14:44:15.749Z,4.63
2018-02-13T14:46:44.133Z,4.27
2018-02-13T14:49:12.514Z,4.07
2018-02-13T14:51:40.937Z,4.63
2018-02-13T14:54:09.342Z,3.67
2018-02-13T14:56:37.747Z,4.10
2018-02-13T14:59:06.233Z,5.20
2018-02-13T15:01:34.636Z,4.10
2018-02-13T15:04:03.028Z,4.40
2018-02-13T15:06:31.472Z,4.40
2018-02-13T15:08:59.861Z,4.30
2018-02-13T15:11:28.273Z,4.13
2018-02-13T15:13:56.759Z,4.73
2018-02-13T15:16:25.180Z,4.17
2018-02-13T15:18:53.596Z,3.40
2018-02-13T15:21:22.034Z,4.17
2018-02-13T15:23:50.433Z,4.80
2018-02-13T15:26:18.825Z,4.33
2018-02-13T15:28:47.262Z,4.30
2018-02-13T15:31:15.641Z,4.27
2018-02-13T15:33:44.056Z,4.10
2018-02-13T15:36:12.475Z,4.40
2018-02-13T15:38:40.874Z,4.63
2018-02-13T15:41:09.266Z,4.63
2018-02-13T15:43:37.713Z,4.03
2018-02-13T15:46:06.119Z,4.10
2018-02-13T15:48:34.507Z,3.67
2018-02-13T15:51:02.938Z,4.27
2018-02-13T15:53:31.323Z,3.80
2018-02-13T15:55:59.721Z,4.03
2018-02-13T15:58:28.157Z,4.47
2018-02-13T16:00:56.545Z,7.57
2018-02-13T16:03:24.927Z,7.40
2018-02-13T16:05:53.510Z,5.20
2018-02-13T16:08:21.905Z,5.23
2018-02-13T16:10:50.286Z,5.80
2018-02-13T16:13:18.738Z,5.30
2018-02-13T16:15:47.145Z,5.57
2018-02-13T16:18:15.564Z,6.40
2018-02-13T16:20:44.014Z,6.73
2018-02-13T16:23:12.413Z,6.30
2018-02-13T16:25:40.840Z,7.93
2018-02-13T16:28:09.287Z,8.93
2018-02-13T16:30:37.700Z,8.47
2018-02-13T16:33:06.662Z,8.97
2018-02-13T16:35:35.130Z,8.80
2018-02-13T16:38:03.565Z,9.60
2018-02-13T16:40:32.008Z,10.10
2018-02-13T16:43:00.507Z,10.53
2018-02-13T16:45:28.949Z,10.40
2018-02-13T16:47:57.406Z,9.13
2018-02-13T16:50:25.888Z,9.13
2018-02-13T16:52:54.324Z,7.83
2018-02-13T16:55:22.738Z,7.60
2018-02-13T16:57:51.204Z,7.93
2018-02-13T17:00:19.641Z,8.73
2018-02-13T17:02:48.067Z,7.70
2018-02-13T17:05:16.546Z,8.60
2018-02-13T17:07:44.994Z,10.17
2018-02-13T17:10:13.425Z,15.00
2018-02-13T17:12:42.136Z,15.43
2018-02-13T17:15:10.569Z,9.30
2018-02-13T17:17:39.012Z,9.47
2018-02-13T17:20:07.478Z,9.17
2018-02-13T17:22:35.922Z,8.30
2018-02-13T17:25:04.377Z,7.77
2018-02-13T17:27:32.858Z,7.70
2018-02-13T17:30:01.284Z,9.33
2018-02-13T17:32:29.741Z,10.60
2018-02-13T17:34:58.246Z,8.20
2018-02-13T17:37:26.674Z,7.60
2018-02-13T17:41:11.471Z,17.93
2018-02-13T17:43:39.874Z,9.73
2018-02-13T17:46:08.279Z,16.27
2018-02-13T17:48:36.737Z,13.10
2018-02-13T17:51:05.150Z,11.57
2018-02-13T17:53:33.549Z,13.40
2018-02-13T17:56:01.998Z,17.40
2018-02-13T17:58:30.381Z,22.03
2018-02-13T18:00:58.808Z,33.67
2018-02-13T18:03:27.265Z,20.67
2018-02-13T18:05:55.655Z,9.63
2018-02-13T18:08:24.052Z,10.83
2018-02-13T18:10:52.516Z,9.50
2018-02-13T18:13:20.977Z,9.17
2018-02-13T18:15:49.365Z,7.70
2018-02-13T18:18:18.103Z,7.27
2018-02-13T18:20:46.486Z,7.23
2018-02-13T18:23:14.884Z,6.80
2018-02-13T18:25:43.338Z,10.77
2018-02-13T18:28:11.721Z,8.27
2018-02-13T18:30:40.132Z,6.23
2018-02-13T18:33:08.597Z,5.97
2018-02-13T18:35:37.023Z,7.03
2018-02-13T18:38:05.407Z,7.07
2018-02-13T18:40:33.848Z,7.30
2018-02-13T18:43:02.251Z,6.57
2018-02-13T18:45:30.660Z,7.47
2018-02-13T18:47:59.100Z,7.67
2018-02-13T18:50:27.493Z,6.40
2018-02-13T18:55:24.340Z,6.57
2018-02-13T18:57:52.745Z,6.00
2018-02-13T19:00:21.149Z,8.33
2018-02-13T19:02:49.604Z,12.67
2018-02-13T19:05:18.009Z,8.70
2018-02-13T19:07:46.401Z,9.07
2018-02-13T19:10:14.863Z,9.70
2018-02-13T19:12:43.257Z,13.80
2018-02-13T19:15:11.665Z,8.70
2018-02-13T19:17:40.086Z,7.83
2018-02-13T19:20:08.493Z,7.73
2018-02-13T19:22:36.891Z,8.40
2018-02-13T19:25:05.326Z,8.00
2018-02-13T19:27:33.718Z,6.70
2018-02-13T19:30:02.124Z,6.90
2018-02-13T19:32:30.548Z,6.23
2018-02-13T19:34:58.967Z,6.03
2018-02-13T19:37:27.368Z,9.47
2018-02-13T19:39:55.800Z,9.13
2018-02-13T19:42:24.210Z,6.00
2018-02-13T19:44:52.620Z,7.13
2018-02-13T19:47:21.065Z,7.50
2018-02-13T19:49:49.449Z,5.90
2018-02-13T19:52:17.844Z,6.07
2018-02-13T19:54:46.454Z,5.67
2018-02-13T19:57:14.853Z,4.40
2018-02-13T19:59:43.236Z,4.50
2018-02-13T20:02:11.672Z,3.97
2018-02-13T20:04:40.069Z,3.40
2018-02-13T20:07:08.445Z,4.27
2018-02-13T20:09:36.905Z,3.63
2018-02-13T20:12:05.341Z,3.97
2018-02-13T20:14:33.733Z,3.70
2018-02-13T20:17:02.168Z,4.07
2018-02-13T20:19:30.546Z,4.30
2018-02-13T20:21:58.939Z,6.10
2018-02-13T20:24:27.555Z,6.03
2018-02-13T20:26:55.980Z,6.90
2018-02-13T20:29:24.369Z,7.20
2018-02-13T20:31:53.177Z,8.20
2018-02-13T20:34:21.685Z,5.67
2018-02-13T20:36:50.068Z,3.50
2018-02-13T20:39:18.517Z,3.80
2018-02-13T20:41:46.906Z,3.33
2018-02-13T20:44:15.298Z,3.50
2018-02-13T20:46:43.813Z,4.00
2018-02-13T20:49:12.221Z,4.70
2018-02-13T20:51:40.591Z,5.20
2018-02-13T20:54:09.023Z,4.43
2018-02-13T20:56:37.444Z,4.30
2018-02-13T20:59:05.822Z,4.60
2018-02-13T21:01:34.260Z,4.10
2018-02-13T21:04:02.661Z,4.17
2018-02-13T21:06:31.048Z,4.13
2018-02-13T21:08:59.688Z,4.47
2018-02-13T21:11:28.070Z,4.50
2018-02-13T21:13:56.457Z,4.10
2018-02-13T21:16:24.897Z,3.77
2018-02-13T21:18:53.292Z,4.47
2018-02-13T21:21:21.692Z,5.50
2018-02-13T21:23:50.123Z,5.27
2018-02-13T21:26:18.514Z,5.17
2018-02-13T21:28:46.898Z,4.50
2018-02-13T21:31:15.316Z,4.77
2018-02-13T21:33:43.690Z,4.53
2018-02-13T21:36:12.117Z,4.43
2018-02-13T21:38:40.545Z,4.30
2018-02-13T21:41:08.965Z,4.70
2018-02-13T21:43:37.343Z,4.23
2018-02-13T21:46:05.758Z,4.37
2018-02-13T21:48:34.186Z,4.47
2018-02-13T21:51:02.574Z,4.23
2018-02-13T21:53:30.998Z,3.80
2018-02-13T21:55:59.392Z,4.30
2018-02-13T21:58:27.789Z,4.07
2018-02-13T22:00:56.246Z,4.13
2018-02-13T22:03:24.626Z,4.00
2018-02-13T22:05:53.087Z,4.67
2018-02-13T22:08:21.521Z,4.57
2018-02-13T22:10:49.960Z,5.40
2018-02-13T22:13:18.403Z,7.10
2018-02-13T22:15:46.840Z,25.97
2018-02-13T22:18:15.289Z,17.33
2018-02-13T22:20:43.673Z,17.17
2018-02-13T22:23:12.101Z,22.40
2018-02-13T22:25:40.517Z,18.57
2018-02-13T22:28:08.924Z,16.13
2018-02-13T22:30:37.369Z,19.77
2018-02-13T22:33:05.769Z,43.50
2018-02-13T22:35:34.163Z,38.27
2018-02-13T22:38:02.629Z,43.87
2018-02-13T22:40:31.035Z,29.23
2018-02-13T22:42:59.441Z,36.27
2018-02-13T22:45:27.908Z,41.63
2018-02-13T22:47:56.316Z,29.20
2018-02-13T22:50:24.713Z,53.20
2018-02-13T22:52:53.160Z,26.90
2018-02-13T22:55:21.579Z,32.00
2018-02-13T22:57:49.974Z,31.77
2018-02-13T23:00:21.324Z,41.60
2018-02-13T23:02:49.717Z,18.90
2018-02-13T23:05:18.121Z,20.10
2018-02-13T23:07:46.775Z,12.37
2018-02-13T23:10:15.162Z,9.53
2018-02-13T23:12:43.569Z,10.87
2018-02-13T23:15:12.049Z,9.60
2018-02-13T23:17:40.453Z,9.70
2018-02-13T23:20:08.838Z,6.97
2018-02-13T23:22:37.263Z,7.40
2018-02-13T23:25:05.648Z,7.50
2018-02-13T23:27:34.048Z,5.93
2018-02-13T23:30:02.478Z,6.30
2018-02-13T23:32:30.880Z,6.13
2018-02-13T23:34:59.288Z,6.40
2018-02-13T23:37:27.736Z,5.53
2018-02-13T23:39:56.120Z,5.97
2018-02-13T23:42:24.510Z,5.47
2018-02-13T23:44:52.940Z,5.23
2018-02-13T23:47:21.333Z,5.80
2018-02-13T23:49:49.749Z,5.20
2018-02-13T23:52:18.173Z,5.30
2018-02-13T23:54:46.580Z,5.30
2018-02-13T23:57:14.965Z,5.07
2018-02-13T23:59:43.410Z,5.17
